Time;durP1;ratioP1;P1;durP2;ratioP2;P2;SDS_P1;SDS_P2;PMS_P1;PMS_P2;Temp;Humidity;BMP_temperature;BMP_pressure;BME280_temperature;BME280_humidity;BME280_pressure;Samples;Min_cycle;Max_cycle;Signal;HPM_P1;HPM_P2
2024/03/31 00:00:23;;;;;;;11.70;9.60;;;;;;;;;;5058332;28;20032;-58
2024/03/31 00:02:48;;;;;;;11.48;8.68;;;;;;;;;;5057721;28;20033;-58
2024/03/31 00:05:13;;;;;;;13.70;9.50;;;;;;;;;;5057753;28;20044;-55
2024/03/31 00:07:39;;;;;;;11.98;9.32;;;;;;;;;;5057729;28;20096;-57
2024/03/31 00:10:04;;;;;;;12.93;9.35;;;;;;;;;;5057705;28;20013;-57
2024/03/31 00:12:30;;;;;;;14.00;9.82;;;;;;;;;;5057687;28;20067;-57
2024/03/31 00:14:55;;;;;;;14.82;10.35;;;;;;;;;;5057584;28;20450;-57
2024/03/31 00:17:21;;;;;;;11.48;10.13;;;;;;;;;;5057557;28;20025;-57
2024/03/31 00:19:46;;;;;;;12.57;10.48;;;;;;;;;;5057475;28;20078;-58
2024/03/31 00:22:11;;;;;;;12.00;9.98;;;;;;;;;;5057718;28;20031;-56
2024/03/31 00:24:37;;;;;;;13.05;10.85;;;;;;;;;;5057458;28;20036;-56
2024/03/31 00:27:02;;;;;;;14.15;10.32;;;;;;;;;;5057306;28;20020;-57
2024/03/31 00:29:27;;;;;;;12.77;10.02;;;;;;;;;;5057321;28;20402;-57
2024/03/31 00:31:53;;;;;;;13.82;10.05;;;;;;;;;;5057282;28;20048;-57
2024/03/31 00:34:21;;;;;;;16.02;11.30;;;;;;;;;;5057260;28;20449;-54
2024/03/31 00:36:47;;;;;;;15.52;12.15;;;;;;;;;;5057200;28;20448;-55
2024/03/31 00:39:12;;;;;;;18.40;12.90;;;;;;;;;;5055913;28;20079;-53
2024/03/31 00:41:37;;;;;;;16.85;11.73;;;;;;;;;;5057159;28;20033;-53
2024/03/31 00:44:03;;;;;;;17.02;11.82;;;;;;;;;;5057071;28;20020;-55
2024/03/31 00:46:28;;;;;;;15.30;11.15;;;;;;;;;;5057065;28;20104;-56
2024/03/31 00:48:54;;;;;;;17.15;11.77;;;;;;;;;;5056948;28;20067;-57
2024/03/31 00:51:19;;;;;;;14.60;11.80;;;;;;;;;;5039370;28;20108;-56
2024/03/31 00:53:44;;;;;;;16.15;12.05;;;;;;;;;;5057085;28;20175;-53
2024/03/31 00:56:12;;;;;;;15.23;12.07;;;;;;;;;;5057184;28;20119;-56
2024/03/31 00:58:37;;;;;;;15.35;11.80;;;;;;;;;;5057252;28;20321;-54
2024/03/31 01:01:03;;;;;;;14.75;10.60;;;;;;;;;;5056720;28;20017;-55
2024/03/31 01:03:28;;;;;;;15.10;10.95;;;;;;;;;;5056651;28;20033;-57
2024/03/31 01:05:55;;;;;;;14.88;12.00;;;;;;;;;;5072427;28;20021;-54
2024/03/31 01:08:20;;;;;;;15.95;11.98;;;;;;;;;;5072359;28;20450;-55
2024/03/31 01:10:45;;;;;;;16.58;11.93;;;;;;;;;;5056866;28;20061;-56
2024/03/31 01:13:11;;;;;;;13.98;12.10;;;;;;;;;;5056537;28;20024;-53
2024/03/31 01:15:36;;;;;;;16.75;11.00;;;;;;;;;;5056470;28;20017;-54
2024/03/31 01:18:01;;;;;;;16.58;11.52;;;;;;;;;;5056478;28;20331;-56
2024/03/31 01:20:26;;;;;;;14.45;11.65;;;;;;;;;;5056348;28;20107;-55
2024/03/31 01:22:52;;;;;;;15.48;12.57;;;;;;;;;;5038819;28;20032;-56
2024/03/31 01:25:17;;;;;;;15.43;11.60;;;;;;;;;;5056310;28;20027;-55
2024/03/31 01:27:42;;;;;;;15.48;13.13;;;;;;;;;;5056723;28;20107;-57
2024/03/31 01:30:07;;;;;;;17.30;12.25;;;;;;;;;;5056266;28;20348;-55
2024/03/31 01:32:32;;;;;;;16.23;13.07;;;;;;;;;;5056501;28;20427;-56
2024/03/31 01:34:58;;;;;;;16.20;12.27;;;;;;;;;;5071928;28;20327;-55
2024/03/31 01:37:23;;;;;;;18.90;12.52;;;;;;;;;;5056076;28;20048;-56
2024/03/31 01:39:48;;;;;;;14.45;11.82;;;;;;;;;;5055981;28;20028;-56
2024/03/31 01:42:13;;;;;;;18.35;12.48;;;;;;;;;;5056226;28;20476;-53
2024/03/31 01:44:39;;;;;;;17.33;12.27;;;;;;;;;;5055949;28;20503;-57
2024/03/31 01:47:04;;;;;;;16.42;12.13;;;;;;;;;;5055784;28;20016;-54
2024/03/31 01:49:29;;;;;;;14.40;12.05;;;;;;;;;;5055591;28;20021;-57
2024/03/31 01:51:54;;;;;;;16.25;13.02;;;;;;;;;;5055763;28;20013;-56
2024/03/31 01:54:19;;;;;;;16.33;12.40;;;;;;;;;;5055738;28;20024;-56
2024/03/31 01:56:45;;;;;;;15.77;12.80;;;;;;;;;;5055714;28;20021;-55
2024/03/31 01:59:10;;;;;;;14.88;12.68;;;;;;;;;;5055568;28;20091;-55
2024/03/31 02:01:35;;;;;;;15.18;12.07;;;;;;;;;;5055493;28;20143;-57
2024/03/31 02:04:01;;;;;;;16.17;11.80;;;;;;;;;;5056322;28;20097;-56
2024/03/31 02:06:26;;;;;;;15.63;13.10;;;;;;;;;;5055481;28;20078;-53
2024/03/31 02:08:51;;;;;;;15.35;12.48;;;;;;;;;;5055512;28;20401;-56
2024/03/31 02:11:16;;;;;;;16.73;13.00;;;;;;;;;;5054419;28;20465;-56
2024/03/31 02:13:41;;;;;;;21.25;12.32;;;;;;;;;;5056122;28;20480;-57
2024/03/31 02:16:07;;;;;;;15.88;13.32;;;;;;;;;;5055310;28;20434;-57
2024/03/31 02:18:32;;;;;;;15.73;13.00;;;;;;;;;;5056352;28;20009;-56
2024/03/31 02:20:57;;;;;;;17.90;12.88;;;;;;;;;;5055136;28;20097;-54
2024/03/31 02:23:22;;;;;;;20.83;14.15;;;;;;;;;;5055533;28;20134;-56
2024/03/31 02:25:47;;;;;;;15.88;13.02;;;;;;;;;;5055279;28;20028;-57
2024/03/31 02:28:13;;;;;;;18.10;14.35;;;;;;;;;;5055129;28;20017;-54
2024/03/31 02:30:38;;;;;;;17.25;14.18;;;;;;;;;;5055036;28;20041;-57
2024/03/31 02:33:03;;;;;;;17.33;13.80;;;;;;;;;;5055633;28;20110;-56
2024/03/31 02:35:28;;;;;;;18.75;13.70;;;;;;;;;;5054889;28;20304;-53
2024/03/31 02:37:54;;;;;;;19.67;14.85;;;;;;;;;;5055144;28;20017;-55
2024/03/31 02:40:19;;;;;;;17.48;12.95;;;;;;;;;;5054908;28;20390;-56
2024/03/31 02:42:44;;;;;;;16.25;14.00;;;;;;;;;;5054824;28;20082;-56
2024/03/31 02:45:09;;;;;;;16.35;13.32;;;;;;;;;;5054855;28;20021;-53
2024/03/31 02:47:35;;;;;;;17.13;13.10;;;;;;;;;;5054724;28;20455;-55
2024/03/31 02:50:00;;;;;;;17.15;13.63;;;;;;;;;;5054769;28;20017;-58
2024/03/31 02:52:25;;;;;;;15.20;12.95;;;;;;;;;;5054718;28;20331;-53
2024/03/31 02:54:51;;;;;;;16.08;12.90;;;;;;;;;;5061929;28;20069;-56
2024/03/31 02:57:16;;;;;;;17.73;12.77;;;;;;;;;;5065997;28;20025;-53
2024/03/31 02:59:41;;;;;;;18.73;13.63;;;;;;;;;;5075165;28;20056;-53
2024/03/31 03:02:07;;;;;;;16.10;12.80;;;;;;;;;;5079559;22;20453;-88
2024/03/31 03:04:34;;;;;;;16.55;12.40;;;;;;;;;;5037205;28;20044;-88
2024/03/31 03:07:01;;;;;;;19.75;13.20;;;;;;;;;;5055007;28;20051;-88
2024/03/31 03:09:26;;;;;;;17.70;13.70;;;;;;;;;;5054794;28;20025;-88
2024/03/31 03:11:51;;;;;;;17.23;14.18;;;;;;;;;;5055269;28;20032;-88
2024/03/31 03:14:16;;;;;;;22.25;14.75;;;;;;;;;;5037333;28;20031;-88
2024/03/31 03:16:42;;;;;;;18.17;14.02;;;;;;;;;;5055681;28;20453;-88
2024/03/31 03:19:07;;;;;;;16.25;13.25;;;;;;;;;;5037914;28;20057;-88
2024/03/31 03:21:32;;;;;;;16.85;14.02;;;;;;;;;;5054674;28;20024;-88
2024/03/31 03:23:58;;;;;;;17.15;13.35;;;;;;;;;;5038006;28;20488;-88
2024/03/31 03:26:23;;;;;;;15.38;13.27;;;;;;;;;;5035505;28;20997;-88
2024/03/31 03:28:48;;;;;;;17.27;12.80;;;;;;;;;;5037015;28;20017;-88
2024/03/31 03:31:13;;;;;;;16.30;12.65;;;;;;;;;;5051310;28;20103;-87
2024/03/31 03:33:39;;;;;;;17.98;14.00;;;;;;;;;;5029388;28;20028;-87
2024/03/31 03:36:05;;;;;;;18.23;13.43;;;;;;;;;;5037574;28;20370;-87
2024/03/31 03:38:30;;;;;;;19.55;14.88;;;;;;;;;;5033657;28;20029;-87
2024/03/31 03:40:56;;;;;;;18.00;13.45;;;;;;;;;;5046303;28;20098;-87
2024/03/31 03:43:22;;;;;;;20.85;14.90;;;;;;;;;;5037411;28;20060;-88
2024/03/31 03:45:47;;;;;;;15.93;13.43;;;;;;;;;;5036790;28;20028;-87
2024/03/31 03:48:12;;;;;;;17.42;12.38;;;;;;;;;;5033392;28;20029;-87
2024/03/31 03:50:37;;;;;;;18.40;14.18;;;;;;;;;;5017574;28;20013;-87
2024/03/31 03:53:06;;;;;;;16.58;12.15;;;;;;;;;;5034225;28;20473;-87
2024/03/31 03:55:32;;;;;;;17.98;12.57;;;;;;;;;;5033916;28;20024;-87
2024/03/31 03:57:57;;;;;;;15.52;11.82;;;;;;;;;;5017395;28;20021;-87
2024/03/31 04:00:22;;;;;;;17.00;11.88;;;;;;;;;;5016937;28;20068;-87
2024/03/31 04:02:47;;;;;;;15.57;10.45;;;;;;;;;;5061626;23;20056;-54
2024/03/31 04:05:12;;;;;;;13.43;11.00;;;;;;;;;;5054306;28;20434;-54
2024/03/31 04:07:38;;;;;;;11.65;7.53;;;;;;;;;;5052798;28;20087;-53
2024/03/31 04:10:03;;;;;;;15.30;8.70;;;;;;;;;;5054529;28;20017;-52
2024/03/31 04:12:28;;;;;;;12.25;7.22;;;;;;;;;;5055513;28;20504;-51
2024/03/31 04:14:53;;;;;;;16.45;7.80;;;;;;;;;;5071145;28;20024;-52
2024/03/31 04:17:19;;;;;;;18.10;7.05;;;;;;;;;;5077847;28;20441;-53
2024/03/31 04:19:44;;;;;;;12.75;6.43;;;;;;;;;;5072801;28;20074;-53
2024/03/31 04:22:09;;;;;;;13.85;7.30;;;;;;;;;;5059926;28;20063;-51
2024/03/31 04:24:34;;;;;;;17.05;6.50;;;;;;;;;;5076700;28;20024;-51
2024/03/31 04:26:59;;;;;;;16.35;5.97;;;;;;;;;;5078010;28;20024;-52
2024/03/31 04:29:25;;;;;;;12.82;6.00;;;;;;;;;;5054913;28;20075;-54
2024/03/31 04:31:54;;;;;;;14.02;5.22;;;;;;;;;;5061026;28;20388;-53
2024/03/31 04:34:19;;;;;;;15.90;5.65;;;;;;;;;;5071277;28;20013;-52
2024/03/31 04:36:45;;;;;;;16.95;4.93;;;;;;;;;;5064840;28;20013;-54
2024/03/31 04:39:10;;;;;;;16.65;4.82;;;;;;;;;;5062316;28;20067;-51
2024/03/31 04:41:35;;;;;;;16.08;5.45;;;;;;;;;;5075359;28;20027;-53
2024/03/31 04:44:00;;;;;;;12.85;4.70;;;;;;;;;;5071780;28;20023;-51
2024/03/31 04:46:27;;;;;;;17.65;5.38;;;;;;;;;;5068616;28;20021;-54
2024/03/31 04:48:52;;;;;;;11.68;5.00;;;;;;;;;;5067838;28;20095;-51
2024/03/31 04:51:18;;;;;;;15.05;4.60;;;;;;;;;;5067552;28;20059;-53
2024/03/31 04:53:43;;;;;;;14.57;4.80;;;;;;;;;;5076398;28;20025;-51
2024/03/31 04:56:09;;;;;;;15.85;4.85;;;;;;;;;;5075560;28;20020;-53
2024/03/31 04:58:34;;;;;;;21.27;5.63;;;;;;;;;;5074784;28;20026;-51
2024/03/31 05:00:59;;;;;;;14.05;4.20;;;;;;;;;;5072665;28;20020;-54
2024/03/31 05:03:25;;;;;;;14.88;4.88;;;;;;;;;;5075479;28;20029;-52
2024/03/31 05:05:50;;;;;;;21.98;5.90;;;;;;;;;;5075739;28;20071;-52
2024/03/31 05:08:16;;;;;;;14.00;4.20;;;;;;;;;;5055845;28;20083;-54
2024/03/31 05:10:41;;;;;;;20.17;5.47;;;;;;;;;;5056464;28;20032;-53
2024/03/31 05:13:06;;;;;;;19.65;4.65;;;;;;;;;;5056866;28;20025;-53
2024/03/31 05:15:31;;;;;;;17.73;4.97;;;;;;;;;;5055359;28;20098;-51
2024/03/31 05:17:57;;;;;;;15.13;4.80;;;;;;;;;;5068123;28;20024;-52
2024/03/31 05:20:22;;;;;;;16.67;4.80;;;;;;;;;;5057030;28;20031;-52
2024/03/31 05:22:47;;;;;;;16.35;5.25;;;;;;;;;;5073508;28;20091;-51
2024/03/31 05:25:13;;;;;;;22.30;5.20;;;;;;;;;;5070670;28;20174;-51
2024/03/31 05:27:38;;;;;;;17.67;5.28;;;;;;;;;;5074686;28;20091;-52
2024/03/31 05:30:04;;;;;;;19.48;5.07;;;;;;;;;;5062053;28;20082;-51
2024/03/31 05:32:29;;;;;;;17.45;5.22;;;;;;;;;;5056726;28;20434;-52
2024/03/31 05:34:54;;;;;;;17.58;4.80;;;;;;;;;;5038910;28;20107;-52
2024/03/31 05:37:19;;;;;;;14.90;4.88;;;;;;;;;;5056386;28;20021;-51
2024/03/31 05:39:44;;;;;;;20.88;4.95;;;;;;;;;;5056369;28;20025;-52
2024/03/31 05:42:10;;;;;;;24.70;5.20;;;;;;;;;;5056300;28;20031;-52
2024/03/31 05:44:35;;;;;;;13.18;4.22;;;;;;;;;;5056254;28;20043;-52
2024/03/31 05:47:00;;;;;;;18.25;4.38;;;;;;;;;;5058148;28;20021;-51
2024/03/31 05:49:25;;;;;;;16.88;3.83;;;;;;;;;;5076438;28;20017;-51
2024/03/31 05:51:50;;;;;;;18.02;3.92;;;;;;;;;;5076131;28;20460;-51
2024/03/31 05:54:15;;;;;;;20.67;4.53;;;;;;;;;;5076616;28;20322;-53
2024/03/31 05:56:41;;;;;;;21.27;4.30;;;;;;;;;;5076262;28;20039;-52
2024/03/31 05:59:06;;;;;;;20.77;4.10;;;;;;;;;;5075474;28;20024;-54
2024/03/31 06:01:31;;;;;;;19.17;4.22;;;;;;;;;;5076540;28;20029;-50
2024/03/31 06:03:56;;;;;;;18.55;4.30;;;;;;;;;;5076210;28;20048;-51
2024/03/31 06:06:22;;;;;;;15.65;3.60;;;;;;;;;;5075912;28;20016;-52
2024/03/31 06:08:47;;;;;;;16.95;3.85;;;;;;;;;;5075787;28;20013;-53
2024/03/31 06:11:12;;;;;;;17.08;3.72;;;;;;;;;;5075850;28;20031;-52
2024/03/31 06:13:37;;;;;;;19.30;4.05;;;;;;;;;;5075679;28;20012;-51
2024/03/31 06:16:03;;;;;;;21.48;4.00;;;;;;;;;;5076173;28;20020;-53
2024/03/31 06:18:28;;;;;;;18.40;3.53;;;;;;;;;;5075923;28;20437;-54
2024/03/31 06:20:53;;;;;;;19.65;3.85;;;;;;;;;;5076100;28;20114;-51
2024/03/31 06:23:18;;;;;;;18.13;4.13;;;;;;;;;;5075779;28;20012;-51
2024/03/31 06:25:44;;;;;;;15.95;3.67;;;;;;;;;;5056102;28;20032;-52
2024/03/31 06:28:09;;;;;;;22.67;3.97;;;;;;;;;;5055395;28;20500;-53
2024/03/31 06:30:34;;;;;;;20.23;3.75;;;;;;;;;;5064258;28;20024;-52
2024/03/31 06:32:59;;;;;;;17.08;3.75;;;;;;;;;;5070740;28;20426;-52
2024/03/31 06:35:25;;;;;;;19.27;3.88;;;;;;;;;;5064674;28;20407;-51
2024/03/31 06:37:50;;;;;;;23.52;4.20;;;;;;;;;;5058667;28;20012;-51
2024/03/31 06:40:15;;;;;;;20.33;3.72;;;;;;;;;;5073561;28;20017;-52
2024/03/31 06:42:40;;;;;;;18.45;3.88;;;;;;;;;;5066493;28;20381;-52
2024/03/31 06:45:06;;;;;;;13.43;3.28;;;;;;;;;;5055668;28;20013;-53
2024/03/31 06:47:31;;;;;;;19.85;4.22;;;;;;;;;;5055107;28;20017;-52
2024/03/31 06:49:56;;;;;;;18.17;3.28;;;;;;;;;;5072656;28;20036;-52
2024/03/31 06:52:21;;;;;;;16.70;3.30;;;;;;;;;;5075067;28;20021;-52
2024/03/31 06:54:46;;;;;;;18.88;4.00;;;;;;;;;;5075078;28;20016;-52
2024/03/31 06:57:12;;;;;;;16.85;3.58;;;;;;;;;;5075025;28;20020;-52
2024/03/31 06:59:37;;;;;;;12.50;3.33;;;;;;;;;;5063431;28;20107;-52
2024/03/31 07:02:03;;;;;;;21.50;3.80;;;;;;;;;;5050224;28;20427;-53
2024/03/31 07:04:28;;;;;;;23.08;3.85;;;;;;;;;;5051816;28;20346;-53
2024/03/31 07:06:53;;;;;;;19.45;3.88;;;;;;;;;;5072653;28;20078;-53
2024/03/31 07:09:18;;;;;;;19.27;3.83;;;;;;;;;;5074829;28;20074;-52
2024/03/31 07:11:44;;;;;;;14.02;3.20;;;;;;;;;;5058958;28;20473;-52
2024/03/31 07:14:09;;;;;;;16.80;3.80;;;;;;;;;;5054776;28;20453;-51
2024/03/31 07:16:34;;;;;;;16.95;3.63;;;;;;;;;;5062266;28;20433;-52
2024/03/31 07:18:59;;;;;;;14.35;3.78;;;;;;;;;;5073255;28;20029;-53
2024/03/31 07:21:25;;;;;;;11.85;3.70;;;;;;;;;;5065116;28;20027;-52
2024/03/31 07:23:50;;;;;;;14.52;3.70;;;;;;;;;;5054973;28;20017;-54
2024/03/31 07:26:15;;;;;;;19.08;5.00;;;;;;;;;;5054565;28;20021;-56
2024/03/31 07:28:40;;;;;;;15.48;3.45;;;;;;;;;;5054769;28;20040;-52
2024/03/31 07:31:05;;;;;;;17.63;3.90;;;;;;;;;;5054649;28;20044;-51
2024/03/31 07:33:31;;;;;;;16.15;3.40;;;;;;;;;;5054450;28;20055;-52
2024/03/31 07:35:58;;;;;;;18.30;4.43;;;;;;;;;;5054563;28;20040;-53
2024/03/31 07:38:23;;;;;;;17.13;4.53;;;;;;;;;;5054612;28;20101;-53
2024/03/31 07:40:48;;;;;;;16.00;4.15;;;;;;;;;;5073180;28;20036;-55
2024/03/31 07:43:19;;;;;;;18.85;3.97;;;;;;;;;;5074620;28;20149;-54
2024/03/31 07:45:45;;;;;;;19.00;4.05;;;;;;;;;;5074791;28;20126;-54
2024/03/31 07:48:10;;;;;;;21.10;4.43;;;;;;;;;;5076786;28;20024;-54
2024/03/31 07:50:35;;;;;;;14.48;3.63;;;;;;;;;;5078761;28;20017;-53
2024/03/31 07:53:00;;;;;;;17.63;3.47;;;;;;;;;;5078413;28;20035;-53
2024/03/31 07:55:25;;;;;;;16.30;3.47;;;;;;;;;;5078334;28;20448;-52
2024/03/31 07:57:51;;;;;;;18.65;3.70;;;;;;;;;;5078206;28;20024;-51
2024/03/31 08:00:16;;;;;;;21.33;3.55;;;;;;;;;;5078710;28;20020;-52
2024/03/31 08:02:41;;;;;;;13.05;3.13;;;;;;;;;;5078088;28;20353;-52
2024/03/31 08:05:06;;;;;;;21.90;4.40;;;;;;;;;;5078417;28;20055;-54
2024/03/31 08:07:32;;;;;;;13.63;3.47;;;;;;;;;;5078315;28;20016;-52
2024/03/31 08:09:57;;;;;;;13.52;3.33;;;;;;;;;;5078330;28;20016;-53
2024/03/31 08:12:22;;;;;;;11.07;2.85;;;;;;;;;;5078002;28;20020;-54
2024/03/31 08:14:48;;;;;;;21.13;4.45;;;;;;;;;;5077938;28;20012;-53
2024/03/31 08:17:14;;;;;;;20.45;3.40;;;;;;;;;;5060985;28;20280;-53
2024/03/31 08:19:39;;;;;;;16.80;3.80;;;;;;;;;;5057866;28;20028;-54
2024/03/31 08:22:04;;;;;;;18.75;3.80;;;;;;;;;;5067325;28;20150;-53
2024/03/31 08:24:30;;;;;;;14.52;2.88;;;;;;;;;;5074558;28;20070;-52
2024/03/31 08:26:55;;;;;;;13.07;3.65;;;;;;;;;;5059127;28;20020;-53
2024/03/31 08:29:20;;;;;;;17.95;3.75;;;;;;;;;;5056115;28;20036;-52
2024/03/31 08:31:46;;;;;;;17.02;3.15;;;;;;;;;;5060290;28;20027;-53
2024/03/31 08:34:12;;;;;;;21.23;3.78;;;;;;;;;;5063558;28;20345;-52
2024/03/31 08:36:37;;;;;;;18.40;3.47;;;;;;;;;;5065166;28;20016;-52
2024/03/31 08:39:02;;;;;;;18.48;3.70;;;;;;;;;;5074940;28;20490;-53
2024/03/31 08:41:28;;;;;;;16.27;3.60;;;;;;;;;;5071256;28;20036;-55
2024/03/31 08:43:57;;;;;;;18.75;3.80;;;;;;;;;;5077809;28;20024;-51
2024/03/31 08:46:22;;;;;;;14.52;3.45;;;;;;;;;;5065338;28;20081;-52
2024/03/31 08:48:47;;;;;;;12.85;3.10;;;;;;;;;;5055994;28;20021;-54
2024/03/31 08:51:13;;;;;;;16.83;3.20;;;;;;;;;;5054697;28;20021;-55
2024/03/31 08:53:39;;;;;;;13.68;2.97;;;;;;;;;;5057277;28;20017;-54
2024/03/31 08:56:04;;;;;;;18.08;3.25;;;;;;;;;;5063330;28;20020;-55
2024/03/31 08:58:30;;;;;;;18.13;3.30;;;;;;;;;;5065266;28;20043;-54
2024/03/31 09:00:56;;;;;;;10.27;3.10;;;;;;;;;;5063241;28;20158;-53
2024/03/31 09:03:21;;;;;;;16.30;3.00;;;;;;;;;;5068716;28;20115;-57
2024/03/31 09:05:47;;;;;;;15.27;3.55;;;;;;;;;;5064893;28;20504;-56
2024/03/31 09:08:12;;;;;;;18.77;3.28;;;;;;;;;;5076533;28;20161;-57
2024/03/31 09:10:37;;;;;;;17.17;3.00;;;;;;;;;;5076686;28;20065;-57
2024/03/31 09:13:09;;;;;;;17.60;3.92;;;;;;;;;;5077177;28;20169;-57
2024/03/31 09:15:35;;;;;;;10.10;2.85;;;;;;;;;;5059267;28;20023;-55
2024/03/31 09:18:00;;;;;;;14.38;3.08;;;;;;;;;;5077293;28;20096;-55
2024/03/31 09:20:25;;;;;;;18.98;3.80;;;;;;;;;;5077293;28;20017;-52
2024/03/31 09:22:50;;;;;;;17.15;2.70;;;;;;;;;;5077156;28;20090;-52
2024/03/31 09:25:16;;;;;;;14.40;3.55;;;;;;;;;;5077012;28;20034;-53
2024/03/31 09:27:41;;;;;;;12.75;2.55;;;;;;;;;;5076553;28;20032;-53
2024/03/31 09:30:07;;;;;;;17.70;3.47;;;;;;;;;;5076705;28;20069;-54
2024/03/31 09:32:32;;;;;;;16.20;2.80;;;;;;;;;;5076659;28;20038;-52
2024/03/31 09:34:57;;;;;;;10.48;2.42;;;;;;;;;;5076745;28;20372;-53
2024/03/31 09:37:22;;;;;;;14.63;2.90;;;;;;;;;;5076487;28;20016;-55
2024/03/31 09:39:48;;;;;;;13.77;2.83;;;;;;;;;;5076365;28;20029;-53
2024/03/31 09:42:13;;;;;;;14.38;2.75;;;;;;;;;;5076354;28;20357;-51
2024/03/31 09:44:42;;;;;;;17.92;3.15;;;;;;;;;;5076312;28;20444;-53
2024/03/31 09:47:11;;;;;;;16.45;2.80;;;;;;;;;;5076172;28;20035;-53
2024/03/31 09:49:38;;;;;;;14.93;2.88;;;;;;;;;;5076472;28;20334;-53
2024/03/31 09:52:04;;;;;;;14.73;2.85;;;;;;;;;;5076103;28;20028;-56
2024/03/31 09:54:32;;;;;;;15.80;3.33;;;;;;;;;;5076094;28;20024;-55
2024/03/31 09:56:57;;;;;;;11.48;2.58;;;;;;;;;;5075914;28;20021;-53
2024/03/31 09:59:23;;;;;;;12.48;2.78;;;;;;;;;;5075627;28;20021;-53
2024/03/31 10:01:49;;;;;;;14.60;3.03;;;;;;;;;;5075791;28;20025;-54
2024/03/31 10:04:34;;;;;;;15.95;2.47;;;;;;;;;;5075908;28;20059;-53
2024/03/31 10:07:00;;;;;;;10.38;2.50;;;;;;;;;;5075022;28;20422;-54
2024/03/31 10:09:26;;;;;;;11.38;2.45;;;;;;;;;;5075767;28;20024;-55
2024/03/31 10:11:52;;;;;;;13.35;2.78;;;;;;;;;;5075822;28;20415;-53
2024/03/31 10:14:19;;;;;;;14.15;2.30;;;;;;;;;;5075745;28;20018;-53
2024/03/31 10:16:44;;;;;;;15.07;2.88;;;;;;;;;;5075601;28;20052;-55
2024/03/31 10:19:10;;;;;;;15.50;2.67;;;;;;;;;;5075505;28;20487;-52
2024/03/31 10:21:35;;;;;;;14.95;2.70;;;;;;;;;;5075846;28;20341;-56
2024/03/31 10:24:01;;;;;;;12.43;2.55;;;;;;;;;;5075765;28;20433;-56
2024/03/31 10:26:27;;;;;;;14.02;3.38;;;;;;;;;;5075405;28;20024;-54
2024/03/31 10:28:54;;;;;;;18.90;2.78;;;;;;;;;;5075394;28;20028;-56
2024/03/31 10:31:20;;;;;;;13.45;2.28;;;;;;;;;;5075707;28;20022;-53
2024/03/31 10:33:45;;;;;;;12.13;2.40;;;;;;;;;;5075596;28;20088;-53
2024/03/31 10:36:11;;;;;;;15.25;2.70;;;;;;;;;;5075331;28;20013;-55
2024/03/31 10:38:41;;;;;;;16.58;2.65;;;;;;;;;;5075260;28;20021;-56
2024/03/31 10:41:07;;;;;;;13.77;2.58;;;;;;;;;;5075538;28;20437;-56
2024/03/31 10:43:33;;;;;;;19.27;2.88;;;;;;;;;;5075460;28;20039;-53
2024/03/31 10:45:58;;;;;;;13.35;2.60;;;;;;;;;;5075156;28;20349;-54
2024/03/31 10:48:23;;;;;;;14.45;3.15;;;;;;;;;;5075091;28;20012;-52
2024/03/31 10:50:48;;;;;;;11.02;2.20;;;;;;;;;;5057485;28;20016;-56
2024/03/31 10:53:23;;;;;;;11.32;2.60;;;;;;;;;;5075422;28;20402;-53
2024/03/31 10:55:50;;;;;;;14.73;2.83;;;;;;;;;;5075590;28;20334;-55
2024/03/31 10:58:16;;;;;;;17.55;2.72;;;;;;;;;;5075266;28;20077;-53
2024/03/31 11:00:42;;;;;;;17.75;3.13;;;;;;;;;;5074960;28;20020;-57
2024/03/31 11:03:08;;;;;;;17.60;3.30;;;;;;;;;;5074836;28;20060;-53
2024/03/31 11:05:33;;;;;;;21.02;3.03;;;;;;;;;;5075230;28;20078;-54
2024/03/31 11:07:59;;;;;;;18.75;2.58;;;;;;;;;;5074796;28;20017;-53
2024/03/31 11:10:26;;;;;;;15.05;2.33;;;;;;;;;;5075009;28;20065;-54
2024/03/31 11:12:51;;;;;;;11.40;2.63;;;;;;;;;;5075365;28;20056;-53
2024/03/31 11:15:17;;;;;;;16.05;2.78;;;;;;;;;;5074817;28;20091;-54
2024/03/31 11:17:42;;;;;;;11.10;2.35;;;;;;;;;;5074847;28;20024;-53
2024/03/31 11:20:08;;;;;;;11.95;2.45;;;;;;;;;;5074746;28;20048;-53
2024/03/31 11:22:34;;;;;;;14.77;2.55;;;;;;;;;;5074106;28;20021;-55
2024/03/31 11:25:00;;;;;;;12.10;2.40;;;;;;;;;;5061760;28;20029;-56
2024/03/31 11:27:26;;;;;;;17.02;2.45;;;;;;;;;;5053122;28;20029;-56
2024/03/31 11:29:51;;;;;;;8.40;2.22;;;;;;;;;;5051177;28;20024;-53
2024/03/31 11:32:17;;;;;;;13.25;2.67;;;;;;;;;;5054591;28;20013;-52
2024/03/31 11:34:45;;;;;;;12.23;2.22;;;;;;;;;;5055042;28;20028;-55
2024/03/31 11:37:11;;;;;;;12.35;2.47;;;;;;;;;;5054484;28;20150;-56
2024/03/31 11:39:36;;;;;;;11.40;2.65;;;;;;;;;;5054545;28;20052;-56
2024/03/31 11:42:02;;;;;;;14.60;2.75;;;;;;;;;;5054774;28;20021;-56
2024/03/31 11:44:28;;;;;;;17.08;2.58;;;;;;;;;;5054522;28;20114;-56
2024/03/31 11:46:53;;;;;;;11.40;2.58;;;;;;;;;;5054414;28;20461;-54
2024/03/31 11:49:19;;;;;;;14.48;2.97;;;;;;;;;;5053868;28;20146;-56
2024/03/31 11:51:44;;;;;;;9.10;2.55;;;;;;;;;;5054674;28;20092;-55
2024/03/31 11:54:10;;;;;;;15.23;2.53;;;;;;;;;;5051399;28;20040;-53
2024/03/31 11:56:36;;;;;;;10.35;2.65;;;;;;;;;;5047926;28;20030;-54
2024/03/31 11:59:11;;;;;;;10.40;2.35;;;;;;;;;;5034718;28;20121;-55
2024/03/31 12:01:36;;;;;;;16.08;2.90;;;;;;;;;;5049140;28;20094;-52
2024/03/31 12:04:01;;;;;;;13.43;2.50;;;;;;;;;;5052644;28;20033;-51
2024/03/31 12:06:27;;;;;;;12.48;2.45;;;;;;;;;;5034467;28;20021;-54
2024/03/31 12:08:53;;;;;;;14.25;2.78;;;;;;;;;;5038486;28;20021;-51
2024/03/31 12:11:21;;;;;;;11.00;2.60;;;;;;;;;;5049977;28;20343;-52
2024/03/31 12:13:47;;;;;;;12.15;2.25;;;;;;;;;;5049469;28;20459;-52
2024/03/31 12:16:12;;;;;;;16.48;2.95;;;;;;;;;;5054101;28;20024;-52
2024/03/31 12:18:37;;;;;;;11.07;2.28;;;;;;;;;;5050797;28;20402;-52
2024/03/31 12:21:03;;;;;;;14.23;2.08;;;;;;;;;;5042126;28;20021;-52
2024/03/31 12:23:28;;;;;;;17.80;2.85;;;;;;;;;;5045585;28;20354;-52
2024/03/31 12:25:53;;;;;;;11.13;2.75;;;;;;;;;;5048983;28;20357;-56
2024/03/31 12:28:18;;;;;;;12.20;2.50;;;;;;;;;;5046382;28;20034;-52
2024/03/31 12:30:46;;;;;;;11.45;2.42;;;;;;;;;;5045721;28;20009;-52
2024/03/31 12:33:11;;;;;;;9.90;2.35;;;;;;;;;;5049676;28;20025;-53
2024/03/31 12:35:36;;;;;;;11.10;2.45;;;;;;;;;;5049634;28;20040;-55
2024/03/31 12:38:02;;;;;;;13.57;2.70;;;;;;;;;;5055579;28;20025;-54
2024/03/31 12:40:27;;;;;;;13.85;2.55;;;;;;;;;;5057461;28;20028;-53
2024/03/31 12:42:54;;;;;;;12.70;2.20;;;;;;;;;;5057626;28;20035;-55
2024/03/31 12:45:20;;;;;;;8.57;2.33;;;;;;;;;;5057649;28;20017;-56
2024/03/31 12:47:46;;;;;;;11.50;2.35;;;;;;;;;;5057268;28;20104;-52
2024/03/31 12:50:12;;;;;;;10.10;2.63;;;;;;;;;;5057240;28;20059;-54
2024/03/31 12:52:37;;;;;;;14.82;2.13;;;;;;;;;;5057668;28;20414;-55
2024/03/31 12:55:15;;;;;;;15.07;2.50;;;;;;;;;;5057332;28;20040;-54
2024/03/31 12:57:41;;;;;;;9.73;2.15;;;;;;;;;;5057111;28;20017;-52
2024/03/31 13:00:09;;;;;;;10.43;2.05;;;;;;;;;;5057929;28;20495;-54
2024/03/31 13:02:41;;;;;;;11.48;2.63;;;;;;;;;;5057510;28;20025;-55
2024/03/31 13:05:06;;;;;;;10.55;2.20;;;;;;;;;;5057204;28;20021;-56
2024/03/31 13:07:31;;;;;;;9.82;1.77;;;;;;;;;;5056983;28;20348;-52
2024/03/31 13:10:00;;;;;;;9.48;2.10;;;;;;;;;;5057339;28;20319;-51
2024/03/31 13:12:26;;;;;;;9.60;1.90;;;;;;;;;;5056976;28;20096;-52
2024/03/31 13:14:51;;;;;;;11.73;2.33;;;;;;;;;;5057226;28;20092;-53
2024/03/31 13:17:16;;;;;;;12.93;2.33;;;;;;;;;;5056909;28;20031;-52
2024/03/31 13:19:41;;;;;;;9.00;2.00;;;;;;;;;;5056848;28;20025;-52
2024/03/31 13:22:07;;;;;;;9.40;1.85;;;;;;;;;;5056780;28;20025;-51
2024/03/31 13:24:34;;;;;;;10.95;1.80;;;;;;;;;;5056685;28;20021;-52
2024/03/31 13:26:59;;;;;;;11.63;2.20;;;;;;;;;;5057064;28;20017;-52
2024/03/31 13:29:24;;;;;;;10.13;1.90;;;;;;;;;;5056565;28;20019;-51
2024/03/31 13:31:49;;;;;;;8.55;1.90;;;;;;;;;;5056509;28;20024;-52
2024/03/31 13:34:15;;;;;;;8.40;1.80;;;;;;;;;;5057015;28;20094;-52
2024/03/31 13:36:40;;;;;;;8.00;1.65;;;;;;;;;;5056692;28;20100;-51
2024/03/31 13:39:05;;;;;;;13.32;1.90;;;;;;;;;;5056980;28;20374;-54
2024/03/31 13:41:30;;;;;;;8.50;1.98;;;;;;;;;;5039214;28;20020;-52
2024/03/31 13:43:55;;;;;;;8.70;1.85;;;;;;;;;;5056721;28;20017;-51
2024/03/31 13:46:21;;;;;;;8.00;1.67;;;;;;;;;;5056162;28;20013;-52
2024/03/31 13:48:46;;;;;;;8.13;1.50;;;;;;;;;;5056175;28;20035;-54
2024/03/31 13:51:11;;;;;;;8.05;1.70;;;;;;;;;;5056198;28;20024;-54
2024/03/31 13:53:36;;;;;;;8.50;1.88;;;;;;;;;;5056141;28;20358;-53
2024/03/31 13:56:02;;;;;;;6.15;1.48;;;;;;;;;;5055856;28;20052;-53
2024/03/31 13:58:27;;;;;;;6.35;1.58;;;;;;;;;;5055924;28;20110;-55
2024/03/31 14:00:52;;;;;;;5.45;1.35;;;;;;;;;;5056372;28;20036;-55
2024/03/31 14:03:17;;;;;;;10.57;1.67;;;;;;;;;;5056025;28;20029;-55
2024/03/31 14:05:42;;;;;;;6.78;1.73;;;;;;;;;;5056031;28;20059;-55
2024/03/31 14:08:08;;;;;;;10.80;1.92;;;;;;;;;;5055802;28;20057;-57
2024/03/31 14:10:33;;;;;;;11.18;1.85;;;;;;;;;;5055740;28;20041;-53
2024/03/31 14:13:04;;;;;;;8.95;1.73;;;;;;;;;;5056434;28;20319;-52
2024/03/31 14:15:31;;;;;;;8.70;2.17;;;;;;;;;;5039035;28;20323;-53
2024/03/31 14:17:56;;;;;;;8.07;1.80;;;;;;;;;;5055755;28;20020;-52